createdAt,value
2022-12-07T00:00:49.908Z,0.00
2022-12-07T00:01:49.963Z,0.00
2022-12-07T00:02:49.908Z,0.00
2022-12-07T00:03:50.217Z,0.00
2022-12-07T00:04:49.884Z,0.00
2022-12-07T00:05:50.661Z,0.00
2022-12-07T00:06:49.869Z,0.00
2022-12-07T00:07:49.894Z,0.00
2022-12-07T00:08:49.838Z,0.00
2022-12-07T00:09:49.824Z,0.00
2022-12-07T00:10:49.141Z,0.00
2022-12-07T00:11:49.802Z,0.00
2022-12-07T00:12:49.791Z,0.00
2022-12-07T00:13:49.110Z,0.00
2022-12-07T00:14:49.294Z,0.00
2022-12-07T00:15:49.081Z,0.00
2022-12-07T00:16:49.793Z,0.00
2022-12-07T00:17:49.070Z,0.00
2022-12-07T00:18:49.072Z,0.00
2022-12-07T00:19:49.992Z,0.00
2022-12-07T00:20:49.972Z,0.00
2022-12-07T00:21:49.030Z,0.00
2022-12-07T00:22:49.021Z,0.00
2022-12-07T00:23:49.643Z,0.00
2022-12-07T00:24:49.681Z,0.00
2022-12-07T00:25:49.932Z,0.00
2022-12-07T00:26:49.636Z,0.00
2022-12-07T00:27:48.954Z,0.00
2022-12-07T00:28:49.616Z,0.00
2022-12-07T00:29:48.922Z,0.00
2022-12-07T00:30:49.615Z,0.00
2022-12-07T00:31:49.662Z,0.00
2022-12-07T00:32:49.573Z,0.00
2022-12-07T00:33:49.008Z,0.00
2022-12-07T00:34:48.874Z,0.00
2022-12-07T00:35:48.876Z,0.00
2022-12-07T00:36:49.537Z,0.00
2022-12-07T00:37:48.877Z,0.00
2022-12-07T00:38:49.508Z,0.00
2022-12-07T00:39:49.505Z,0.00
2022-12-07T00:40:49.501Z,0.00
2022-12-07T00:41:49.749Z,0.00
2022-12-07T00:42:48.850Z,0.00
2022-12-07T00:43:48.778Z,0.00
2022-12-07T00:44:49.449Z,0.00
2022-12-07T00:45:48.859Z,0.00
2022-12-07T00:46:48.773Z,0.00
2022-12-07T00:47:49.431Z,0.00
2022-12-07T00:48:49.426Z,0.00
2022-12-07T00:49:49.386Z,0.00
2022-12-07T00:50:49.386Z,0.00
2022-12-07T00:51:49.369Z,0.00
2022-12-07T00:52:49.435Z,0.00
2022-12-07T00:53:50.620Z,0.00
2022-12-07T00:54:48.657Z,0.00
2022-12-07T00:55:50.616Z,0.00
2022-12-07T00:56:48.661Z,0.00
2022-12-07T00:57:48.663Z,0.00
2022-12-07T00:58:49.300Z,0.00
2022-12-07T00:59:48.629Z,0.00
2022-12-07T01:00:48.607Z,0.00
2022-12-07T01:01:49.635Z,0.00
2022-12-07T01:02:49.308Z,0.00
2022-12-07T01:03:49.462Z,0.00
2022-12-07T01:04:49.520Z,0.00
2022-12-07T01:05:49.221Z,0.00
2022-12-07T01:06:49.481Z,0.00
2022-12-07T01:07:49.531Z,0.00
2022-12-07T01:08:49.517Z,0.00
2022-12-07T01:09:49.449Z,0.00
2022-12-07T01:10:49.440Z,0.00
2022-12-07T01:11:49.421Z,0.00
2022-12-07T01:12:49.141Z,0.00
2022-12-07T01:13:49.424Z,0.00
2022-12-07T01:14:48.522Z,0.00
2022-12-07T01:15:49.123Z,0.00
2022-12-07T01:16:49.466Z,0.00
2022-12-07T01:17:49.400Z,0.00
2022-12-07T01:18:49.080Z,0.00
2022-12-07T01:19:49.354Z,0.00
2022-12-07T01:20:49.351Z,0.00
2022-12-07T01:21:49.052Z,0.00
2022-12-07T01:22:49.347Z,0.00
2022-12-07T01:23:49.302Z,0.00
2022-12-07T01:24:49.292Z,0.00
2022-12-07T01:25:49.012Z,0.00
2022-12-07T01:26:49.377Z,0.00
2022-12-07T01:27:48.996Z,0.00
2022-12-07T01:28:48.982Z,0.00
2022-12-07T01:29:48.963Z,0.00
2022-12-07T01:30:49.245Z,0.00
2022-12-07T01:31:48.943Z,0.00
2022-12-07T01:32:48.921Z,0.00
2022-12-07T01:33:49.202Z,0.00
2022-12-07T01:34:49.154Z,0.00
2022-12-07T01:35:48.904Z,0.00
2022-12-07T01:36:48.896Z,0.00
2022-12-07T01:37:49.142Z,0.00
2022-12-07T01:38:48.858Z,0.00
2022-12-07T01:39:50.115Z,0.00
2022-12-07T01:40:48.846Z,0.00
2022-12-07T01:41:49.119Z,0.00
2022-12-07T01:42:48.818Z,0.00
2022-12-07T01:43:49.069Z,0.00
2022-12-07T01:44:48.797Z,0.00
2022-12-07T01:45:49.099Z,0.00
2022-12-07T01:46:48.817Z,0.00
2022-12-07T01:47:49.040Z,0.00
2022-12-07T01:48:48.761Z,0.00
2022-12-07T01:49:49.001Z,0.00
2022-12-07T01:50:48.718Z,0.00
2022-12-07T01:51:49.003Z,0.00
2022-12-07T01:52:49.476Z,0.00
2022-12-07T01:53:48.976Z,0.00
2022-12-07T01:54:48.689Z,0.00
2022-12-07T01:55:48.929Z,0.00
2022-12-07T01:56:48.667Z,0.00
2022-12-07T01:57:48.935Z,0.00
2022-12-07T01:58:48.910Z,0.00
2022-12-07T01:59:48.912Z,0.00
2022-12-07T02:00:48.879Z,0.00
2022-12-07T02:01:48.918Z,0.00
2022-12-07T02:02:48.694Z,0.00
2022-12-07T02:03:48.860Z,0.00
2022-12-07T02:04:48.849Z,0.00
2022-12-07T02:05:48.842Z,0.00
2022-12-07T02:06:48.827Z,0.00
2022-12-07T02:07:48.892Z,0.00
2022-12-07T02:08:48.541Z,0.00
2022-12-07T02:09:48.541Z,0.00
2022-12-07T02:10:48.531Z,0.00
2022-12-07T02:11:48.772Z,0.00
2022-12-07T02:12:49.252Z,0.00
2022-12-07T02:13:48.501Z,0.00
2022-12-07T02:14:48.495Z,0.00
2022-12-07T02:15:48.523Z,0.00
2022-12-07T02:16:48.744Z,0.00
2022-12-07T02:17:48.454Z,0.00
2022-12-07T02:18:48.681Z,0.00
2022-12-07T02:19:48.430Z,0.00
2022-12-07T02:20:48.713Z,0.00
2022-12-07T02:21:48.672Z,0.00
2022-12-07T02:22:48.404Z,0.00
2022-12-07T02:23:48.394Z,0.00
2022-12-07T02:24:48.626Z,0.00
2022-12-07T02:25:48.660Z,0.00
2022-12-07T02:26:48.633Z,0.00
2022-12-07T02:27:48.607Z,0.00
2022-12-07T02:28:48.347Z,0.00
2022-12-07T02:29:48.583Z,0.00
2022-12-07T02:30:48.605Z,0.00
2022-12-07T02:31:48.301Z,0.00
2022-12-07T02:32:48.603Z,0.00
2022-12-07T02:33:48.294Z,0.00
2022-12-07T02:34:48.273Z,0.00
2022-12-07T02:35:48.263Z,0.00
2022-12-07T02:36:48.257Z,0.00
2022-12-07T02:37:48.495Z,0.00
2022-12-07T02:38:48.311Z,0.00
2022-12-07T02:39:48.493Z,0.00
2022-12-07T02:40:48.211Z,0.00
2022-12-07T02:41:48.454Z,0.00
2022-12-07T02:42:48.435Z,0.00
2022-12-07T02:43:48.429Z,0.00
2022-12-07T02:44:48.444Z,0.00
2022-12-07T02:45:48.154Z,0.00
2022-12-07T02:46:48.229Z,0.00
2022-12-07T02:47:48.375Z,0.00
2022-12-07T02:48:48.116Z,0.00
2022-12-07T02:49:48.367Z,0.00
2022-12-07T02:50:48.376Z,0.00
2022-12-07T02:51:48.348Z,0.00
2022-12-07T02:52:48.067Z,0.00
2022-12-07T02:53:48.317Z,0.00
2022-12-07T02:54:48.325Z,0.00
2022-12-07T02:55:48.326Z,0.00
2022-12-07T02:56:48.288Z,0.00
2022-12-07T02:57:48.028Z,0.00
2022-12-07T02:58:48.022Z,0.00
2022-12-07T02:59:48.273Z,0.00
2022-12-07T03:00:48.251Z,0.00
2022-12-07T03:01:48.032Z,0.00
2022-12-07T03:02:48.282Z,0.00
2022-12-07T03:03:48.239Z,0.00
2022-12-07T03:04:48.717Z,0.00
2022-12-07T03:05:48.177Z,0.00
2022-12-07T03:06:47.910Z,0.00
2022-12-07T03:07:48.221Z,0.00
2022-12-07T03:08:47.910Z,0.00
2022-12-07T03:09:47.898Z,0.00
2022-12-07T03:10:48.139Z,0.00
2022-12-07T03:11:48.119Z,0.00
2022-12-07T03:12:47.851Z,0.00
2022-12-07T03:13:48.109Z,0.00
2022-12-07T03:14:48.089Z,0.00
2022-12-07T03:15:48.112Z,0.00
2022-12-07T03:16:48.060Z,0.00
2022-12-07T03:17:48.061Z,0.00
2022-12-07T03:18:47.779Z,0.00
2022-12-07T03:19:48.038Z,0.00
2022-12-07T03:20:47.779Z,0.00
2022-12-07T03:21:47.769Z,0.00
2022-12-07T03:22:47.752Z,0.00
2022-12-07T03:23:48.031Z,0.00
2022-12-07T03:24:48.012Z,0.00
2022-12-07T03:25:47.731Z,0.00
2022-12-07T03:26:47.971Z,0.00
2022-12-07T03:27:47.955Z,0.00
2022-12-07T03:28:47.942Z,0.00
2022-12-07T03:29:47.920Z,0.00
2022-12-07T03:30:47.736Z,0.00
2022-12-07T03:31:47.902Z,0.00
2022-12-07T03:32:47.661Z,0.00
2022-12-07T03:33:47.651Z,0.00
2022-12-07T03:34:47.622Z,0.00
2022-12-07T03:35:47.615Z,0.00
2022-12-07T03:36:47.580Z,0.00
2022-12-07T03:37:47.601Z,0.00
2022-12-07T03:38:47.591Z,0.00
2022-12-07T03:39:47.572Z,0.00
2022-12-07T03:40:47.802Z,0.00
2022-12-07T03:41:47.823Z,0.00
2022-12-07T03:42:47.795Z,0.00
2022-12-07T03:43:47.775Z,0.00
2022-12-07T03:44:47.524Z,0.00
2022-12-07T03:45:47.513Z,0.00
2022-12-07T03:46:48.435Z,0.00
2022-12-07T03:47:47.487Z,0.00
2022-12-07T03:48:47.485Z,0.00
2022-12-07T03:49:46.989Z,0.00
2022-12-07T03:50:47.715Z,0.00
2022-12-07T03:51:47.706Z,0.00
2022-12-07T03:52:47.426Z,0.00
2022-12-07T03:53:47.674Z,0.00
2022-12-07T03:54:47.694Z,0.00
2022-12-07T03:55:47.404Z,0.00
2022-12-07T03:56:46.797Z,0.00
2022-12-07T03:57:48.155Z,0.00
2022-12-07T03:58:47.654Z,0.00
2022-12-07T03:59:47.371Z,0.00
2022-12-07T04:00:47.354Z,0.00
2022-12-07T04:01:47.347Z,0.00
2022-12-07T04:02:47.654Z,0.00
2022-12-07T04:03:47.568Z,0.00
2022-12-07T04:04:47.303Z,0.00
2022-12-07T04:05:47.296Z,0.00
2022-12-07T04:06:47.548Z,0.00
2022-12-07T04:07:47.401Z,0.00
2022-12-07T04:08:47.256Z,0.00
2022-12-07T04:09:47.506Z,0.00
2022-12-07T04:10:47.228Z,0.00
2022-12-07T04:11:47.237Z,0.00
2022-12-07T04:12:47.486Z,0.00
2022-12-07T04:13:47.475Z,0.00
2022-12-07T04:14:47.448Z,0.00
2022-12-07T04:15:46.814Z,0.00
2022-12-07T04:16:47.204Z,0.00
2022-12-07T04:17:47.169Z,0.00
2022-12-07T04:18:47.150Z,0.00
2022-12-07T04:19:47.419Z,0.00
2022-12-07T04:20:47.388Z,0.00
2022-12-07T04:21:47.407Z,0.00
2022-12-07T04:22:47.110Z,0.00
2022-12-07T04:23:46.431Z,0.00
2022-12-07T04:24:47.089Z,0.00
2022-12-07T04:25:47.085Z,0.00
2022-12-07T04:26:46.420Z,0.00
2022-12-07T04:27:47.061Z,0.00
2022-12-07T04:28:47.040Z,0.00
2022-12-07T04:29:46.370Z,0.00
2022-12-07T04:30:46.352Z,0.00
2022-12-07T04:31:46.420Z,0.00
2022-12-07T04:32:47.258Z,0.00
2022-12-07T04:33:47.272Z,0.00
2022-12-07T04:34:49.347Z,0.00
2022-12-07T04:35:47.254Z,0.00
2022-12-07T04:36:46.284Z,0.00
2022-12-07T04:37:46.949Z,0.00
2022-12-07T04:38:47.195Z,0.00
2022-12-07T04:39:46.935Z,0.00
2022-12-07T04:40:46.914Z,0.00
2022-12-07T04:41:46.254Z,0.00
2022-12-07T04:42:46.893Z,0.00
2022-12-07T04:43:46.261Z,0.00
2022-12-07T04:44:47.142Z,0.00
2022-12-07T04:45:46.199Z,0.00
2022-12-07T04:46:46.925Z,0.00
2022-12-07T04:47:46.161Z,0.00
2022-12-07T04:48:46.833Z,0.00
2022-12-07T04:49:46.823Z,0.00
2022-12-07T04:50:46.812Z,0.00
2022-12-07T04:51:46.132Z,0.00
2022-12-07T04:52:46.793Z,0.00
2022-12-07T04:53:46.115Z,0.00
2022-12-07T04:54:46.108Z,0.00
2022-12-07T04:55:46.113Z,0.00
2022-12-07T04:56:46.770Z,0.00
2022-12-07T04:57:47.001Z,0.00
2022-12-07T04:58:46.734Z,0.00
2022-12-07T04:59:46.731Z,0.00
2022-12-07T05:00:47.046Z,0.00
2022-12-07T05:01:46.757Z,0.00
2022-12-07T05:02:46.686Z,0.00
2022-12-07T05:03:46.924Z,0.00
2022-12-07T05:04:46.969Z,0.00
2022-12-07T05:05:46.919Z,0.00
2022-12-07T05:06:46.640Z,0.00
2022-12-07T05:07:46.923Z,0.00
2022-12-07T05:08:46.890Z,0.00
2022-12-07T05:09:46.628Z,0.00
2022-12-07T05:10:46.985Z,0.00
2022-12-07T05:11:46.585Z,0.00
2022-12-07T05:12:45.914Z,0.00
2022-12-07T05:13:46.835Z,0.00
2022-12-07T05:14:46.835Z,0.00
2022-12-07T05:15:46.828Z,0.00
2022-12-07T05:16:46.583Z,0.00
2022-12-07T05:17:46.621Z,0.00
2022-12-07T05:18:46.513Z,0.00
2022-12-07T05:19:46.507Z,0.00
2022-12-07T05:20:46.502Z,0.00
2022-12-07T05:21:47.239Z,0.00
2022-12-07T05:22:46.457Z,0.00
2022-12-07T05:23:46.728Z,0.00
2022-12-07T05:24:46.450Z,0.00
2022-12-07T05:25:46.436Z,0.00
2022-12-07T05:26:46.690Z,0.00
2022-12-07T05:27:46.419Z,0.00
2022-12-07T05:28:46.699Z,0.00
2022-12-07T05:29:46.395Z,0.00
2022-12-07T05:30:46.391Z,0.00
2022-12-07T05:31:46.704Z,0.00
2022-12-07T05:32:46.629Z,0.00
2022-12-07T05:33:46.619Z,0.00
2022-12-07T05:34:46.639Z,0.00
2022-12-07T05:35:46.328Z,0.00
2022-12-07T05:36:46.590Z,0.00
2022-12-07T05:37:45.631Z,0.00
2022-12-07T05:38:46.606Z,0.00
2022-12-07T05:39:46.291Z,0.00
2022-12-07T05:40:46.603Z,0.00
2022-12-07T05:41:47.321Z,0.00
2022-12-07T05:42:45.592Z,0.00
2022-12-07T05:43:46.252Z,0.00
2022-12-07T05:44:45.569Z,0.00
2022-12-07T05:45:45.585Z,0.00
2022-12-07T05:46:45.678Z,0.00
2022-12-07T05:47:46.200Z,0.00
2022-12-07T05:48:46.452Z,0.00
2022-12-07T05:49:46.184Z,0.00
2022-12-07T05:50:45.492Z,0.00
2022-12-07T05:51:46.201Z,0.00
2022-12-07T05:52:46.514Z,0.00
2022-12-07T05:53:46.142Z,0.00
2022-12-07T05:54:46.404Z,0.00
2022-12-07T05:55:46.122Z,0.00
2022-12-07T05:56:46.113Z,0.00
2022-12-07T05:57:46.361Z,0.00
2022-12-07T05:58:46.372Z,0.00
2022-12-07T05:59:46.345Z,0.00
2022-12-07T06:00:50.900Z,0.00
2022-12-07T06:01:47.094Z,0.00
2022-12-07T06:02:46.410Z,0.00
2022-12-07T06:03:46.061Z,0.00
2022-12-07T06:04:46.093Z,0.00
2022-12-07T06:05:47.240Z,0.00
2022-12-07T06:06:46.264Z,0.00
2022-12-07T06:07:46.093Z,0.00
2022-12-07T06:08:46.244Z,0.00
2022-12-07T06:09:45.294Z,0.00
2022-12-07T06:10:45.423Z,0.00
2022-12-07T06:11:46.184Z,0.00
2022-12-07T06:12:45.936Z,0.00
2022-12-07T06:13:47.465Z,0.00
2022-12-07T06:14:45.915Z,0.00
2022-12-07T06:15:45.918Z,0.00
2022-12-07T06:16:45.391Z,0.00
2022-12-07T06:17:45.208Z,0.00
2022-12-07T06:18:45.205Z,0.00
2022-12-07T06:19:45.871Z,0.00
2022-12-07T06:20:46.136Z,0.00
2022-12-07T06:21:45.167Z,0.00
2022-12-07T06:22:45.175Z,0.00
2022-12-07T06:23:45.825Z,0.00
2022-12-07T06:24:45.830Z,0.00
2022-12-07T06:25:45.804Z,0.00
2022-12-07T06:26:47.463Z,0.00
2022-12-07T06:27:45.116Z,0.00
2022-12-07T06:28:45.127Z,0.00
2022-12-07T06:29:45.755Z,0.00
2022-12-07T06:30:46.498Z,0.00
2022-12-07T06:31:45.120Z,0.00
2022-12-07T06:32:45.066Z,0.00
2022-12-07T06:33:45.708Z,0.00
2022-12-07T06:34:45.128Z,0.00
2022-12-07T06:35:45.074Z,0.00
2022-12-07T06:36:45.712Z,0.00
2022-12-07T06:37:45.011Z,0.00
2022-12-07T06:38:45.666Z,0.00
2022-12-07T06:39:44.970Z,0.00
2022-12-07T06:40:45.939Z,0.00
2022-12-07T06:41:44.962Z,0.00
2022-12-07T06:42:44.950Z,0.00
2022-12-07T06:43:45.082Z,0.00
2022-12-07T06:44:45.603Z,0.00
2022-12-07T06:45:45.639Z,0.00
2022-12-07T06:46:45.665Z,0.00
2022-12-07T06:47:45.741Z,0.00
2022-12-07T06:48:45.570Z,0.00
2022-12-07T06:49:44.870Z,0.00
2022-12-07T06:50:49.787Z,0.00
2022-12-07T06:51:46.809Z,0.00
2022-12-07T06:52:45.519Z,0.00
2022-12-07T06:53:45.102Z,0.00
2022-12-07T06:54:45.496Z,0.00
2022-12-07T06:55:45.470Z,0.00
2022-12-07T06:56:45.462Z,0.00
2022-12-07T06:57:45.459Z,0.00
2022-12-07T06:58:45.465Z,0.00
2022-12-07T06:59:45.439Z,0.00
2022-12-07T07:00:45.739Z,0.00
2022-12-07T07:01:45.528Z,0.00
2022-12-07T07:02:45.447Z,0.00
2022-12-07T07:03:45.394Z,0.00
2022-12-07T07:04:45.382Z,0.00
2022-12-07T07:05:44.712Z,0.00
2022-12-07T07:06:45.371Z,0.00
2022-12-07T07:08:20.186Z,0.00
2022-12-07T07:08:46.678Z,0.00
2022-12-07T07:09:44.651Z,0.00
2022-12-07T07:10:45.313Z,0.00
2022-12-07T07:11:44.632Z,0.00
2022-12-07T07:12:45.291Z,0.00
2022-12-07T07:13:45.282Z,0.00
2022-12-07T07:14:45.565Z,0.00
2022-12-07T07:15:45.265Z,0.00
2022-12-07T07:16:45.319Z,0.00
2022-12-07T07:17:45.245Z,0.00
2022-12-07T07:18:45.224Z,0.00
2022-12-07T07:19:45.214Z,0.00
2022-12-07T07:20:45.205Z,0.00
2022-12-07T07:21:45.203Z,5.62
2022-12-07T07:22:45.434Z,5.62
2022-12-07T07:23:45.457Z,5.62
2022-12-07T07:24:45.164Z,5.62
2022-12-07T07:25:45.155Z,5.62
2022-12-07T07:26:45.127Z,5.62
2022-12-07T07:27:45.125Z,5.62
2022-12-07T07:28:45.128Z,5.62
2022-12-07T07:29:45.370Z,5.62
2022-12-07T07:30:45.156Z,5.62
2022-12-07T07:31:44.421Z,5.62
2022-12-07T07:32:45.082Z,11.25
2022-12-07T07:33:45.306Z,11.25
2022-12-07T07:34:45.053Z,11.25
2022-12-07T07:35:45.048Z,11.25
2022-12-07T07:36:45.039Z,11.25
2022-12-07T07:37:44.376Z,5.62
2022-12-07T07:38:45.297Z,5.62
2022-12-07T07:39:45.279Z,11.25
2022-12-07T07:40:44.338Z,11.25
2022-12-07T07:41:44.296Z,11.25
2022-12-07T07:42:44.303Z,11.25
2022-12-07T07:43:44.959Z,11.25
2022-12-07T07:44:44.940Z,16.88
2022-12-07T07:45:45.003Z,16.88
2022-12-07T07:46:44.939Z,22.50
2022-12-07T07:47:44.917Z,22.50
2022-12-07T07:48:44.919Z,22.50
2022-12-07T07:49:48.042Z,28.12
2022-12-07T07:50:44.915Z,28.12
2022-12-07T07:51:44.891Z,28.12
2022-12-07T07:52:44.871Z,28.12
2022-12-07T07:53:44.873Z,33.75
2022-12-07T07:54:44.842Z,33.75
2022-12-07T07:55:44.170Z,39.38
2022-12-07T07:56:44.207Z,39.38
2022-12-07T07:57:46.207Z,39.38
2022-12-07T07:58:46.575Z,45.00
2022-12-07T07:59:45.554Z,45.00
2022-12-07T08:00:44.155Z,45.00
2022-12-07T08:01:44.811Z,45.00
2022-12-07T08:02:44.120Z,45.00
2022-12-07T08:03:44.771Z,50.62
2022-12-07T08:04:44.894Z,50.62
2022-12-07T08:05:44.084Z,50.62
2022-12-07T08:06:44.033Z,50.62
2022-12-07T08:07:44.062Z,56.25
2022-12-07T08:08:44.700Z,56.25
2022-12-07T08:09:44.015Z,56.25
2022-12-07T08:10:44.672Z,61.88
2022-12-07T08:11:44.662Z,61.88
2022-12-07T08:12:44.662Z,67.50
2022-12-07T08:13:43.963Z,73.12
2022-12-07T08:14:43.992Z,236.25
2022-12-07T08:15:44.688Z,438.75
2022-12-07T08:16:44.607Z,461.25
2022-12-07T08:17:45.857Z,433.12
2022-12-07T08:18:43.916Z,416.25
2022-12-07T08:19:43.913Z,410.62
2022-12-07T08:20:44.596Z,399.38
2022-12-07T08:21:44.574Z,388.12
2022-12-07T08:22:44.550Z,376.88
2022-12-07T08:23:44.533Z,365.62
2022-12-07T08:24:43.845Z,354.38
2022-12-07T08:25:44.836Z,348.75
2022-12-07T08:26:43.911Z,337.50
2022-12-07T08:27:44.485Z,320.62
2022-12-07T08:28:44.477Z,303.75
2022-12-07T08:29:45.226Z,298.12
2022-12-07T08:30:43.869Z,298.12
2022-12-07T08:31:43.801Z,292.50
2022-12-07T08:32:44.434Z,286.88
2022-12-07T08:33:43.765Z,281.25
2022-12-07T08:34:44.424Z,281.25
2022-12-07T08:35:43.736Z,281.25
2022-12-07T08:36:43.745Z,264.38
2022-12-07T08:37:43.728Z,135.00
2022-12-07T08:39:01.509Z,112.50
2022-12-07T08:39:46.107Z,112.50
2022-12-07T08:40:44.348Z,118.12
2022-12-07T08:41:43.678Z,140.62
2022-12-07T08:42:43.681Z,157.50
2022-12-07T08:43:44.325Z,208.12
2022-12-07T08:44:44.302Z,135.00
2022-12-07T08:45:44.557Z,101.25
2022-12-07T08:46:44.594Z,101.25
2022-12-07T08:47:44.558Z,95.62
2022-12-07T08:48:43.587Z,95.62
2022-12-07T08:49:44.258Z,95.62
2022-12-07T08:50:49.309Z,95.62
2022-12-07T08:51:44.568Z,101.25
2022-12-07T08:52:44.518Z,101.25
2022-12-07T08:53:44.518Z,101.25
2022-12-07T08:54:44.927Z,95.62
2022-12-07T08:55:44.441Z,95.62
2022-12-07T08:56:44.181Z,101.25
2022-12-07T08:57:44.430Z,101.25
2022-12-07T08:58:44.422Z,106.88
2022-12-07T08:59:44.144Z,106.88
2022-12-07T09:00:44.390Z,106.88
2022-12-07T09:01:44.430Z,101.25
2022-12-07T09:02:44.197Z,106.88
2022-12-07T09:03:44.359Z,112.50
2022-12-07T09:04:44.350Z,112.50
2022-12-07T09:05:44.408Z,106.88
2022-12-07T09:06:44.419Z,101.25
2022-12-07T09:07:44.359Z,101.25
2022-12-07T09:08:44.373Z,106.88
2022-12-07T09:09:44.280Z,106.88
2022-12-07T09:10:44.022Z,129.38
2022-12-07T09:11:44.022Z,112.50
2022-12-07T09:12:44.782Z,163.12
2022-12-07T09:13:44.252Z,151.88
2022-12-07T09:14:44.261Z,106.88
2022-12-07T09:15:44.300Z,101.25
2022-12-07T09:16:43.280Z,95.62
2022-12-07T09:17:44.201Z,101.25
2022-12-07T09:18:45.186Z,118.12
2022-12-07T09:19:45.212Z,101.25
2022-12-07T09:20:44.203Z,106.88
2022-12-07T09:21:44.190Z,118.12
2022-12-07T09:22:43.905Z,123.75
2022-12-07T09:23:44.164Z,135.00
2022-12-07T09:24:43.872Z,140.62
2022-12-07T09:25:44.133Z,151.88
2022-12-07T09:26:43.851Z,157.50
2022-12-07T09:27:44.132Z,163.12
2022-12-07T09:28:44.114Z,174.38
2022-12-07T09:29:43.844Z,185.62
2022-12-07T09:31:21.051Z,208.12
2022-12-07T09:31:45.614Z,376.88
2022-12-07T09:32:44.049Z,590.62
2022-12-07T09:33:44.047Z,298.12
2022-12-07T09:34:43.807Z,585.00
2022-12-07T09:35:44.035Z,607.50
2022-12-07T09:36:43.755Z,556.88
2022-12-07T09:37:43.733Z,624.38
2022-12-07T09:38:43.734Z,444.38
2022-12-07T09:39:49.753Z,343.12
2022-12-07T09:40:44.019Z,286.88
2022-12-07T09:41:43.975Z,247.50
2022-12-07T09:42:45.014Z,281.25
2022-12-07T09:43:43.673Z,523.12
2022-12-07T09:44:43.920Z,658.12
2022-12-07T09:45:48.365Z,236.25
2022-12-07T09:46:45.015Z,258.75
2022-12-07T09:47:43.878Z,213.75
2022-12-07T09:48:43.870Z,174.38
2022-12-07T09:49:43.890Z,151.88
2022-12-07T09:50:44.349Z,146.25
2022-12-07T09:51:43.848Z,135.00
2022-12-07T09:52:44.837Z,135.00
2022-12-07T09:53:43.567Z,140.62
2022-12-07T09:54:44.796Z,146.25
2022-12-07T09:55:43.553Z,157.50
2022-12-07T09:56:44.808Z,163.12
2022-12-07T09:57:43.524Z,163.12
2022-12-07T09:58:43.781Z,163.12
2022-12-07T09:59:43.752Z,168.75
2022-12-07T10:00:43.738Z,163.12
2022-12-07T10:01:43.565Z,163.12
2022-12-07T10:02:43.710Z,157.50
2022-12-07T10:03:43.716Z,151.88
2022-12-07T10:04:43.504Z,151.88
2022-12-07T10:05:44.700Z,146.25
2022-12-07T10:06:43.673Z,146.25
2022-12-07T10:07:43.700Z,146.25
2022-12-07T10:08:43.650Z,135.00
2022-12-07T10:09:43.391Z,140.62
2022-12-07T10:10:43.381Z,146.25
2022-12-07T10:11:43.374Z,151.88
2022-12-07T10:12:43.610Z,163.12
2022-12-07T10:13:43.620Z,174.38
2022-12-07T10:15:06.125Z,191.25
2022-12-07T10:15:44.361Z,191.25
2022-12-07T10:16:43.636Z,185.62
2022-12-07T10:17:43.572Z,174.38
2022-12-07T10:18:43.568Z,163.12
2022-12-07T10:19:43.665Z,146.25
2022-12-07T10:20:43.547Z,129.38
2022-12-07T10:21:43.325Z,123.75
2022-12-07T10:22:43.247Z,123.75
2022-12-07T10:23:43.234Z,129.38
2022-12-07T10:24:43.247Z,135.00
2022-12-07T10:25:43.527Z,129.38
2022-12-07T10:26:43.952Z,123.75
2022-12-07T10:27:43.484Z,112.50
2022-12-07T10:28:43.196Z,112.50
2022-12-07T10:29:43.424Z,118.12
2022-12-07T10:30:43.165Z,118.12
2022-12-07T10:31:43.540Z,118.12
2022-12-07T10:32:43.165Z,112.50
2022-12-07T10:33:43.136Z,118.12
2022-12-07T10:34:47.425Z,118.12
2022-12-07T10:35:44.116Z,123.75
2022-12-07T10:36:43.385Z,135.00
2022-12-07T10:37:43.083Z,135.00
2022-12-07T10:38:43.358Z,129.38
2022-12-07T10:39:43.366Z,135.00
2022-12-07T10:40:46.430Z,135.00
2022-12-07T10:41:43.046Z,135.00
2022-12-07T10:42:43.302Z,129.38
2022-12-07T10:43:43.022Z,135.00
2022-12-07T10:44:43.313Z,151.88
2022-12-07T10:46:02.629Z,174.38
2022-12-07T10:46:44.322Z,180.00
2022-12-07T10:47:42.988Z,174.38
2022-12-07T10:48:43.240Z,163.12
2022-12-07T10:49:44.948Z,146.25
2022-12-07T10:50:42.957Z,135.00
2022-12-07T10:51:42.937Z,129.38
2022-12-07T10:52:43.308Z,118.12
2022-12-07T10:53:43.157Z,112.50
2022-12-07T10:54:43.149Z,112.50
2022-12-07T10:55:42.879Z,112.50
2022-12-07T10:56:45.096Z,112.50
2022-12-07T10:57:44.129Z,118.12
2022-12-07T10:58:43.108Z,123.75
2022-12-07T10:59:43.098Z,123.75
2022-12-07T11:00:43.195Z,129.38
2022-12-07T11:01:43.177Z,140.62
2022-12-07T11:02:43.141Z,140.62
2022-12-07T11:03:42.811Z,151.88
2022-12-07T11:04:43.071Z,151.88
2022-12-07T11:05:43.030Z,151.88
2022-12-07T11:06:43.041Z,151.88
2022-12-07T11:07:43.103Z,140.62
2022-12-07T11:08:43.017Z,140.62
2022-12-07T11:10:07.939Z,140.62
2022-12-07T11:10:44.470Z,140.62
2022-12-07T11:11:42.731Z,146.25
2022-12-07T11:12:42.986Z,146.25
2022-12-07T11:13:42.683Z,151.88
2022-12-07T11:14:42.727Z,151.88
2022-12-07T11:15:42.941Z,163.12
2022-12-07T11:16:43.009Z,157.50
2022-12-07T11:17:42.914Z,146.25
2022-12-07T11:18:42.922Z,140.62
2022-12-07T11:19:42.924Z,157.50
2022-12-07T11:20:42.625Z,157.50
2022-12-07T11:21:43.883Z,157.50
2022-12-07T11:22:42.843Z,168.75
2022-12-07T11:23:42.864Z,168.75
2022-12-07T11:24:42.834Z,168.75
2022-12-07T11:25:42.565Z,174.38
2022-12-07T11:26:42.569Z,180.00
2022-12-07T11:27:42.804Z,180.00
2022-12-07T11:28:42.545Z,185.62
2022-12-07T11:29:42.799Z,180.00
2022-12-07T11:30:42.764Z,174.38
2022-12-07T11:31:42.530Z,180.00
2022-12-07T11:32:42.517Z,174.38
2022-12-07T11:33:42.740Z,180.00
2022-12-07T11:34:42.488Z,174.38
2022-12-07T11:35:42.465Z,174.38
2022-12-07T11:36:42.711Z,174.38
2022-12-07T11:37:43.731Z,168.75
2022-12-07T11:38:42.689Z,157.50
2022-12-07T11:39:42.683Z,151.88
2022-12-07T11:40:42.420Z,151.88
2022-12-07T11:41:42.656Z,140.62
2022-12-07T11:42:42.388Z,151.88
2022-12-07T11:43:42.688Z,151.88
2022-12-07T11:44:42.621Z,140.62
2022-12-07T11:45:42.620Z,140.62
2022-12-07T11:46:42.695Z,129.38
2022-12-07T11:47:42.580Z,118.12
2022-12-07T11:48:42.624Z,135.00
2022-12-07T11:49:42.324Z,135.00
2022-12-07T11:50:42.308Z,135.00
2022-12-07T11:51:42.301Z,135.00
2022-12-07T11:52:42.538Z,135.00
2022-12-07T11:53:42.518Z,140.62
2022-12-07T11:54:42.529Z,146.25
2022-12-07T11:55:42.274Z,151.88
2022-12-07T11:56:42.491Z,157.50
2022-12-07T11:57:42.489Z,163.12
2022-12-07T11:58:42.463Z,163.12
2022-12-07T11:59:42.463Z,163.12
2022-12-07T12:00:42.450Z,157.50
2022-12-07T12:01:42.226Z,157.50
2022-12-07T12:02:42.440Z,157.50
2022-12-07T12:03:42.218Z,157.50
2022-12-07T12:04:42.400Z,157.50
2022-12-07T12:05:42.401Z,157.50
2022-12-07T12:06:43.401Z,157.50
2022-12-07T12:09:45.664Z,163.12
2022-12-07T12:10:42.842Z,163.12
2022-12-07T12:11:43.375Z,163.12
2022-12-07T12:14:46.559Z,163.12
2022-12-07T12:15:42.303Z,168.75
2022-12-07T12:16:42.353Z,157.50
2022-12-07T12:17:43.304Z,163.12
2022-12-07T12:18:42.008Z,168.75
2022-12-07T12:19:42.393Z,151.88
2022-12-07T12:20:42.243Z,146.25
2022-12-07T12:21:42.205Z,140.62
2022-12-07T12:22:42.234Z,135.00
2022-12-07T12:23:42.222Z,135.00
2022-12-07T12:24:41.945Z,129.38
2022-12-07T12:25:42.303Z,129.38
2022-12-07T12:26:42.179Z,123.75
2022-12-07T12:27:42.181Z,129.38
2022-12-07T12:28:48.431Z,135.00
2022-12-07T12:29:44.141Z,123.75
2022-12-07T12:30:42.183Z,118.12
2022-12-07T12:31:41.970Z,123.75
2022-12-07T12:32:41.855Z,123.75
2022-12-07T12:33:41.849Z,135.00
2022-12-07T12:34:48.333Z,151.88
2022-12-07T12:35:42.818Z,157.50
2022-12-07T12:36:42.134Z,157.50
2022-12-07T12:37:42.103Z,163.12
2022-12-07T12:38:41.799Z,157.50
2022-12-07T12:39:42.048Z,151.88
2022-12-07T12:40:45.629Z,151.88
2022-12-07T12:41:44.007Z,135.00
2022-12-07T12:42:41.748Z,135.00
2022-12-07T12:43:42.099Z,123.75
2022-12-07T12:44:41.968Z,112.50
2022-12-07T12:45:42.504Z,118.12
2022-12-07T12:46:45.188Z,118.12
2022-12-07T12:47:42.959Z,112.50
2022-12-07T12:48:41.679Z,106.88
2022-12-07T12:49:41.671Z,106.88
2022-12-07T12:50:41.660Z,112.50
2022-12-07T12:51:41.926Z,112.50
2022-12-07T12:52:47.260Z,112.50
2022-12-07T12:53:42.615Z,118.12
2022-12-07T12:54:41.871Z,118.12
2022-12-07T12:55:42.394Z,123.75
2022-12-07T12:56:41.879Z,129.38
2022-12-07T12:57:41.840Z,135.00
2022-12-07T12:58:41.844Z,129.38
2022-12-07T12:59:41.563Z,123.75
2022-12-07T13:00:41.834Z,118.12
2022-12-07T13:01:41.961Z,112.50
2022-12-07T13:02:41.569Z,106.88